»·PEaware :: N612SB KSNA-KSNA

N612SB :: KSNA-KSNA

FLIGHT INFORMATION

Flight Status: Arrived
Operator: Privately registered:
United States
More flights under this callsign
Pilot: Clay B. (17061)
Aircraft: BOEING 737-200
(B732)
More flights by this aircraft type
Origin: KSNA John Wayne-Orange Co
United States
Destination: KSNA John Wayne-Orange Co
United States
More flights between these airports :: More routes between these airports
Route: +SLI
File this flight plan on PilotEdge
Remarks:
Altitude:
(Current/Filed)
4,000ft
Speed:
(Current/Filed)
0kts
Departed: 06-Dec-18 08:49 PM
Arrived: 06-Dec-18 09:45 PM
Distance/Time
Traveled:
0nm/0:55
Distance/Time
To Go:
Arrived

Flight Plot

Page will automatically refresh every two minutes.


Map Options




Map Legend


Flown Route
Filed Route
Departure Airport
Arrival Airport
Navaid (VOR, NDB)
Fix

Horizontal Profiles

Position Reports

Time Latitude Longitude Heading Altitude Ground
Speed
06-Dec-18 20:34 33.675358 -117.864857 117 65ft 0kts
06-Dec-18 20:35 33.675358 -117.864857 117 65ft 0kts
06-Dec-18 20:36 33.675358 -117.864857 117 65ft 0kts
06-Dec-18 20:37 33.675358 -117.864857 117 65ft 0kts
06-Dec-18 20:38 33.675358 -117.864857 117 65ft 0kts
06-Dec-18 20:40 33.675358 -117.864857 117 65ft 0kts
06-Dec-18 20:41 33.675439 -117.865049 117 65ft 2kts
06-Dec-18 20:42 33.675517 -117.865595 27 65ft 1kts
06-Dec-18 20:43 33.675497 -117.865608 28 65ft 0kts
06-Dec-18 20:44 33.675779 -117.865423 28 65ft 6kts
06-Dec-18 20:45 33.677965 -117.864026 28 65ft 11kts
06-Dec-18 20:46 33.680651 -117.863085 300 65ft 0kts
06-Dec-18 20:47 33.680719 -117.863229 298 65ft 6kts
06-Dec-18 20:48 33.681171 -117.865372 209 65ft 15kts
06-Dec-18 20:49 33.649903 -117.887069 202 1693ft 183kts
06-Dec-18 20:50 33.584206 -117.899935 186 4791ft 260kts
06-Dec-18 20:51 33.506879 -117.912862 186 4995ft 287kts
06-Dec-18 20:52 33.468697 -117.977273 291 5003ft 265kts
06-Dec-18 20:53 33.523938 -118.018635 341 4989ft 243kts
06-Dec-18 20:54 33.586801 -118.046367 341 4981ft 242kts
06-Dec-18 20:55 33.650397 -118.063004 25 4993ft 237kts
06-Dec-18 20:56 33.707268 -118.022422 31 4978ft 242kts
06-Dec-18 20:57 33.765035 -117.979926 31 4981ft 244kts
06-Dec-18 20:58 33.822700 -117.937948 31 4990ft 243kts
06-Dec-18 20:59 33.880674 -117.897370 31 4996ft 243kts
06-Dec-18 20:59 33.929224 -117.863907 31 5000ft 243kts
06-Dec-18 21:01 33.953201 -117.787913 111 3600ft 243kts
06-Dec-18 21:01 33.927597 -117.729487 147 3017ft 234kts
06-Dec-18 21:02 33.867942 -117.746726 206 3010ft 230kts
06-Dec-18 21:04 33.804471 -117.787069 207 2786ft 224kts
06-Dec-18 21:05 33.752304 -117.820252 203 1760ft 182kts
06-Dec-18 21:05 33.720292 -117.840621 203 909ft 131kts
06-Dec-18 21:06 33.686727 -117.861947 199 417ft 147kts
06-Dec-18 21:08 33.645039 -117.892453 213 2258ft 192kts
06-Dec-18 21:08 33.598884 -117.926265 207 3030ft 276kts
06-Dec-18 21:09 33.547879 -117.982771 268 3006ft 247kts
06-Dec-18 21:10 33.594341 -118.021518 1 3024ft 239kts
06-Dec-18 21:11 33.660921 -118.021375 1 3014ft 244kts
06-Dec-18 21:12 33.721458 -118.006036 31 3016ft 237kts
06-Dec-18 21:13 33.777298 -117.966752 31 3008ft 232kts
06-Dec-18 21:14 33.829153 -117.930870 31 2998ft 229kts
06-Dec-18 21:15 33.883665 -117.893423 31 2992ft 224kts
06-Dec-18 21:16 33.937433 -117.856266 31 2991ft 222kts
06-Dec-18 21:17 33.969846 -117.804021 107 3029ft 213kts
06-Dec-18 21:18 33.948740 -117.743573 114 3011ft 206kts
06-Dec-18 21:19 33.898921 -117.729618 190 3017ft 211kts
06-Dec-18 21:20 33.851326 -117.757433 204 2968ft 164kts
06-Dec-18 21:21 33.812327 -117.782075 204 3028ft 167kts
06-Dec-18 21:22 33.775152 -117.805723 201 2159ft 148kts
06-Dec-18 21:23 33.745519 -117.824576 203 1523ft 141kts
06-Dec-18 21:24 33.715164 -117.843835 200 861ft 139kts
06-Dec-18 21:25 33.680946 -117.865422 202 176ft 137kts
06-Dec-18 21:26 33.645613 -117.897881 217 1845ft 230kts
06-Dec-18 21:27 33.631696 -117.976152 275 2998ft 288kts
06-Dec-18 21:28 33.592185 -118.044348 244 3014ft 248kts
06-Dec-18 21:29 33.621406 -118.096661 10 3037ft 232kts
06-Dec-18 21:30 33.678118 -118.059334 31 3018ft 238kts
06-Dec-18 21:31 33.734953 -118.018323 31 3016ft 241kts
06-Dec-18 21:32 33.792572 -117.977535 31 3007ft 244kts
06-Dec-18 21:33 33.851078 -117.936769 31 2998ft 243kts
06-Dec-18 21:34 33.909015 -117.896657 31 2991ft 241kts
06-Dec-18 21:35 33.957614 -117.862807 31 2997ft 240kts
06-Dec-18 21:36 33.980048 -117.799929 110 3030ft 235kts
06-Dec-18 21:37 33.950534 -117.732370 148 3019ft 228kts
06-Dec-18 21:38 33.887583 -117.734972 203 3010ft 236kts
06-Dec-18 21:39 33.832428 -117.769341 205 3048ft 205kts
06-Dec-18 21:40 33.785918 -117.798905 203 2517ft 170kts
06-Dec-18 21:41 33.747488 -117.823302 204 1541ft 143kts
06-Dec-18 21:42 33.713445 -117.844873 201 849ft 146kts
06-Dec-18 21:43 33.679842 -117.866277 202 99ft 140kts
06-Dec-18 21:44 33.667546 -117.872919 110 65ft 7kts
06-Dec-18 21:45 33.669416 -117.870611 39 65ft 13kts
06-Dec-18 21:46 33.672875 -117.867554 45 65ft 14kts
06-Dec-18 21:47 33.675928 -117.865323 27 65ft 7kts
06-Dec-18 21:48 33.676105 -117.865216 26 65ft 0kts
06-Dec-18 21:49 33.676118 -117.865208 26 65ft 2kts
06-Dec-18 21:50 33.676086 -117.864370 119 65ft 0kts
06-Dec-18 21:51 33.676086 -117.864370 119 65ft 0kts

Navigation Log

Ident Type
Flight plan parsing failed, navigation log unavailable